createdAt,value
2023-03-10T00:02:56.686Z,82529.28
2023-03-10T00:05:59.569Z,82532.50
2023-03-10T00:09:02.668Z,82530.16
2023-03-10T00:12:05.867Z,82538.87
2023-03-10T00:15:09.383Z,82540.44
2023-03-10T00:18:12.272Z,82542.06
2023-03-10T00:21:16.953Z,82546.00
2023-03-10T00:24:20.089Z,82553.97
2023-03-10T00:27:22.626Z,82560.28
2023-03-10T00:30:25.931Z,82569.81
2023-03-10T00:33:31.257Z,82569.00
2023-03-10T00:36:34.429Z,82572.16
2023-03-10T00:39:37.142Z,82571.41
2023-03-10T00:42:41.039Z,82571.44
2023-03-10T00:45:43.569Z,82582.50
2023-03-10T00:48:46.362Z,82586.47
2023-03-10T00:51:48.757Z,82589.66
2023-03-10T00:54:51.798Z,82594.44
2023-03-10T00:57:54.146Z,82600.84
2023-03-10T01:00:56.993Z,82607.16
2023-03-10T01:04:05.573Z,82605.63
2023-03-10T01:07:08.279Z,82610.34
2023-03-10T01:10:11.911Z,82615.06
2023-03-10T01:13:15.930Z,82600.87
2023-03-10T01:16:18.503Z,82599.25
2023-03-10T01:19:21.286Z,82589.75
2023-03-10T01:22:24.091Z,82596.88
2023-03-10T01:25:28.383Z,82597.66
2023-03-10T01:28:30.864Z,82588.19
2023-03-10T01:31:33.869Z,82588.22
2023-03-10T01:34:36.418Z,82588.97
2023-03-10T01:37:39.377Z,82597.69
2023-03-10T01:40:49.410Z,82592.19
2023-03-10T01:43:55.453Z,82590.63
2023-03-10T01:46:59.353Z,82586.72
2023-03-10T01:50:05.944Z,82595.34
2023-03-10T01:53:09.116Z,82608.84
2023-03-10T01:56:12.348Z,82605.69
2023-03-10T01:59:15.205Z,82612.03
2023-03-10T02:02:19.051Z,82613.63
2023-03-10T02:05:22.769Z,82608.13
2023-03-10T02:08:29.809Z,82606.53
2023-03-10T02:11:33.118Z,82597.81
2023-03-10T02:14:36.747Z,82604.12
2023-03-10T02:17:40.463Z,82596.28
2023-03-10T02:21:08.493Z,82601.00
2023-03-10T02:34:27.218Z,82594.69
2023-03-10T02:37:33.355Z,82597.09
2023-03-10T02:40:48.303Z,82601.09
2023-03-10T02:43:53.599Z,82611.38
2023-03-10T02:46:56.763Z,82613.72
2023-03-10T02:50:00.608Z,82613.78
2023-03-10T02:53:13.627Z,82616.13
2023-03-10T02:56:16.637Z,82620.09
2023-03-10T02:59:19.430Z,82626.44
2023-03-10T03:02:22.402Z,82635.91
2023-03-10T03:05:25.277Z,82629.59
2023-03-10T03:08:28.830Z,82624.88
2023-03-10T03:11:31.776Z,82621.66
2023-03-10T03:14:34.612Z,82618.56
2023-03-10T03:17:38.161Z,82623.34
2023-03-10T03:20:41.231Z,82631.25
2023-03-10T03:23:46.033Z,82629.66
2023-03-10T03:26:49.088Z,82623.34
2023-03-10T03:29:51.875Z,82618.62
2023-03-10T03:32:55.546Z,82616.25
2023-03-10T03:35:58.090Z,82621.78
2023-03-10T03:39:02.300Z,82621.78
2023-03-10T03:42:05.401Z,82617.84
2023-03-10T03:45:10.103Z,82628.91
2023-03-10T03:48:13.196Z,82626.56
2023-03-10T03:51:16.254Z,82625.81
2023-03-10T03:54:18.601Z,82632.13
2023-03-10T03:57:21.671Z,82629.75
2023-03-10T04:00:25.016Z,82626.59
2023-03-10T04:03:28.762Z,82626.62
2023-03-10T04:06:31.300Z,82621.88
2023-03-10T04:09:34.233Z,82612.41
2023-03-10T04:12:37.372Z,82617.19
2023-03-10T04:15:40.040Z,82606.06
2023-03-10T04:18:42.768Z,82594.97
2023-03-10T04:21:45.855Z,82593.41
2023-03-10T04:24:48.894Z,82594.97
2023-03-10T04:27:52.563Z,82591.81
2023-03-10T04:30:55.308Z,82600.53
2023-03-10T04:33:58.335Z,82593.41
2023-03-10T04:37:00.853Z,82594.19
2023-03-10T04:40:08.490Z,82592.63
2023-03-10T04:43:11.385Z,82595.03
2023-03-10T04:46:14.493Z,82593.44
2023-03-10T04:49:17.363Z,82591.87
2023-03-10T04:52:20.476Z,82591.06
2023-03-10T04:55:23.389Z,82598.19
2023-03-10T04:58:26.280Z,82598.22
2023-03-10T05:01:33.305Z,82599.00
2023-03-10T05:04:36.549Z,82598.22
2023-03-10T05:07:39.072Z,82596.59
2023-03-10T05:10:44.374Z,82599.81
2023-03-10T05:13:48.048Z,82599.78
2023-03-10T05:16:51.186Z,82593.44
2023-03-10T05:19:54.962Z,82591.87
2023-03-10T05:22:58.002Z,82591.97
2023-03-10T05:26:05.046Z,82596.62
2023-03-10T05:29:08.538Z,82595.88
2023-03-10T05:32:11.541Z,82591.13
2023-03-10T05:35:14.752Z,82585.59
2023-03-10T05:38:18.069Z,82579.28
2023-03-10T05:41:21.049Z,82565.84
2023-03-10T05:44:24.496Z,82564.22
2023-03-10T05:47:27.414Z,82567.38
2023-03-10T05:50:31.270Z,82562.63
2023-03-10T05:53:35.603Z,82560.28
2023-03-10T05:56:39.133Z,82548.44
2023-03-10T05:59:42.913Z,82547.59
2023-03-10T06:02:45.796Z,82547.63
2023-03-10T06:05:48.510Z,82539.69
2023-03-10T06:08:50.929Z,82534.94
2023-03-10T06:11:53.656Z,82530.22
2023-03-10T06:14:56.054Z,82527.06
2023-03-10T06:17:58.806Z,82538.13
2023-03-10T06:21:05.487Z,82541.34
2023-03-10T06:24:08.738Z,82538.09
2023-03-10T06:27:11.794Z,82535.78
2023-03-10T06:30:15.240Z,82528.59
2023-03-10T06:33:17.825Z,82525.44
2023-03-10T06:36:23.166Z,82511.19
2023-03-10T06:39:29.036Z,82508.03
2023-03-10T06:42:33.084Z,82511.22
2023-03-10T06:45:35.563Z,82508.06
2023-03-10T06:48:40.744Z,82489.81
2023-03-10T06:51:43.832Z,82478.00
2023-03-10T06:54:46.648Z,82465.28
2023-03-10T06:57:49.125Z,82462.09
2023-03-10T07:00:51.793Z,82450.97
2023-03-10T07:03:54.634Z,82455.75
2023-03-10T07:06:57.306Z,82452.59
2023-03-10T07:09:59.674Z,82438.28
2023-03-10T07:13:03.138Z,82421.66
2023-03-10T07:16:06.121Z,82411.34
2023-03-10T07:19:08.783Z,82399.50
2023-03-10T07:22:11.477Z,82390.72
2023-03-10T07:25:14.128Z,82382.81
2023-03-10T07:28:16.500Z,82354.28
2023-03-10T07:31:19.329Z,82292.38
2023-03-10T07:34:21.905Z,82238.41
2023-03-10T07:37:24.581Z,82214.62
2023-03-10T07:40:31.352Z,82153.38
2023-03-10T07:43:34.136Z,82151.00
2023-03-10T07:46:36.866Z,82058.84
2023-03-10T07:49:39.713Z,82003.03
2023-03-10T07:52:42.424Z,81992.72
2023-03-10T07:55:45.126Z,81970.53
2023-03-10T07:58:47.838Z,81861.44
2023-03-10T08:01:50.602Z,81909.25
2023-03-10T08:04:53.429Z,81935.53
2023-03-10T08:07:55.839Z,81917.25
2023-03-10T08:11:09.754Z,81871.88
2023-03-10T08:14:12.344Z,81843.22
2023-03-10T08:17:15.338Z,81844.00
2023-03-10T08:20:18.021Z,81785.03
2023-03-10T08:23:20.749Z,81828.88
2023-03-10T08:26:23.182Z,81797.13
2023-03-10T08:29:25.850Z,81715.78
2023-03-10T08:32:31.353Z,81636.81
2023-03-10T08:35:36.762Z,81573.06
2023-03-10T08:38:39.746Z,81568.31
2023-03-10T08:41:46.809Z,81571.44
2023-03-10T08:44:49.494Z,81628.91
2023-03-10T08:47:52.248Z,81673.62
2023-03-10T08:50:54.604Z,81719.12
2023-03-10T08:53:57.671Z,81694.44
2023-03-10T08:57:00.904Z,81662.50
2023-03-10T09:00:06.321Z,81583.59
2023-03-10T09:03:15.542Z,81557.22
2023-03-10T09:06:18.927Z,81608.31
2023-03-10T09:09:21.348Z,81600.38
2023-03-10T09:12:24.014Z,81567.69
2023-03-10T09:15:26.783Z,81568.50
2023-03-10T09:18:29.551Z,81578.16
2023-03-10T09:21:33.731Z,81678.66
2023-03-10T09:24:36.606Z,81673.88
2023-03-10T09:27:39.052Z,81662.66
2023-03-10T09:30:43.076Z,81643.53
2023-03-10T09:33:46.598Z,81675.47
2023-03-10T09:36:50.841Z,81678.69
2023-03-10T09:39:53.637Z,81610.22
2023-03-10T09:43:06.438Z,81584.69
2023-03-10T09:46:19.530Z,81520.78
2023-03-10T09:49:38.748Z,81510.47
2023-03-10T09:53:27.763Z,81479.37
2023-03-10T09:56:36.111Z,81516.09
2023-03-10T09:59:40.847Z,81560.91
2023-03-10T10:02:47.750Z,81549.69
2023-03-10T10:05:53.557Z,81602.28
2023-03-10T10:09:08.754Z,81597.59
2023-03-10T10:12:16.921Z,81605.66
2023-03-10T10:15:24.862Z,81582.62
2023-03-10T10:18:43.485Z,81583.44
2023-03-10T10:22:17.281Z,81505.19
2023-03-10T10:25:23.147Z,81414.19
2023-03-10T10:28:57.948Z,81356.69
2023-03-10T10:32:14.478Z,81364.78
2023-03-10T10:35:24.651Z,81320.13
2023-03-10T10:38:30.235Z,81300.97
2023-03-10T10:41:34.697Z,81276.13
2023-03-10T10:44:43.037Z,81255.41
2023-03-10T10:47:51.366Z,81246.66
2023-03-10T10:50:54.369Z,81264.16
2023-03-10T10:53:59.353Z,81352.25
2023-03-10T10:57:02.632Z,81347.38
2023-03-10T11:00:18.911Z,81286.63
2023-03-10T11:03:33.918Z,81342.63
2023-03-10T11:06:38.271Z,81347.50
2023-03-10T11:09:41.191Z,81389.19
2023-03-10T11:13:09.548Z,81418.78
2023-03-10T11:16:22.241Z,81378.06
2023-03-10T11:19:57.517Z,81323.78
2023-03-10T11:23:24.835Z,81331.84
2023-03-10T11:26:48.379Z,81341.44
2023-03-10T11:29:57.558Z,81360.72
2023-03-10T11:33:38.485Z,81362.25
2023-03-10T11:37:00.192Z,81318.38
2023-03-10T11:40:42.337Z,81319.25
2023-03-10T11:43:56.243Z,81334.53
2023-03-10T11:47:13.374Z,81317.75
2023-03-10T11:50:39.507Z,81271.47
2023-03-10T11:53:53.944Z,81271.53
2023-03-10T11:56:58.302Z,81260.38
2023-03-10T12:00:07.911Z,81286.06
2023-03-10T12:03:19.927Z,81281.28
2023-03-10T12:06:34.980Z,81234.97
2023-03-10T12:09:44.022Z,81191.72
2023-03-10T12:12:48.696Z,81182.25
2023-03-10T12:15:55.859Z,81186.31
2023-03-10T12:18:58.730Z,81219.06
2023-03-10T12:22:25.018Z,81263.91
2023-03-10T12:25:30.546Z,81279.94
2023-03-10T12:28:33.894Z,81283.16
2023-03-10T12:31:39.417Z,81274.53
2023-03-10T12:34:42.239Z,81262.47
2023-03-10T12:37:44.685Z,81280.16
2023-03-10T12:40:49.636Z,81294.53
2023-03-10T12:44:05.373Z,81285.91
2023-03-10T12:47:08.241Z,81273.13
2023-03-10T12:50:36.243Z,81277.09
2023-03-10T12:53:54.591Z,81275.56
2023-03-10T12:57:11.681Z,81275.56
2023-03-10T13:00:27.779Z,81262.72
2023-03-10T13:03:35.559Z,81267.63
2023-03-10T13:06:41.582Z,81246.88
2023-03-10T13:09:48.359Z,81246.91
2023-03-10T13:12:56.127Z,81235.84
2023-03-10T13:16:07.466Z,81229.34
2023-03-10T13:19:20.949Z,81207.06
2023-03-10T13:22:23.476Z,81224.69
2023-03-10T13:25:26.691Z,81203.88
2023-03-10T13:28:31.659Z,81218.28
2023-03-10T13:31:34.911Z,81219.94
2023-03-10T13:34:38.518Z,81223.06
2023-03-10T13:37:41.266Z,81197.53
2023-03-10T13:40:57.519Z,81261.50
2023-03-10T13:44:00.268Z,81268.75
2023-03-10T13:47:12.638Z,81280.78
2023-03-10T13:50:16.771Z,81289.56
2023-03-10T13:53:26.047Z,81280.87
2023-03-10T13:56:38.536Z,81288.00
2023-03-10T13:59:41.561Z,81294.41
2023-03-10T14:02:46.475Z,81306.50
2023-03-10T14:05:49.566Z,81300.09
2023-03-10T14:08:52.257Z,81320.06
2023-03-10T14:11:54.976Z,81306.50
2023-03-10T14:15:20.938Z,81332.03
2023-03-10T14:18:28.320Z,81309.66
2023-03-10T14:21:34.218Z,81322.44
2023-03-10T14:24:36.918Z,81324.06
2023-03-10T14:27:42.394Z,81333.66
2023-03-10T14:30:45.287Z,81337.66
2023-03-10T14:33:48.417Z,81347.97
2023-03-10T14:36:51.093Z,81346.53
2023-03-10T14:39:53.440Z,81348.03
2023-03-10T14:43:00.548Z,81354.50
2023-03-10T14:46:03.340Z,81346.47
2023-03-10T14:49:14.766Z,81364.00
2023-03-10T14:52:18.358Z,81357.66
2023-03-10T14:55:21.500Z,81358.53
2023-03-10T14:58:28.322Z,81359.47
2023-03-10T15:01:31.623Z,81360.31
2023-03-10T15:04:34.432Z,81370.66
2023-03-10T15:07:37.134Z,81368.28
2023-03-10T15:10:48.263Z,81375.47
2023-03-10T15:13:51.677Z,81380.16
2023-03-10T15:16:55.558Z,81382.66
2023-03-10T15:19:58.253Z,81396.97
2023-03-10T15:23:00.561Z,81394.59
2023-03-10T15:26:09.594Z,81393.84
2023-03-10T15:29:17.439Z,81399.50
2023-03-10T15:32:21.345Z,81418.59
2023-03-10T15:35:24.211Z,81421.72
2023-03-10T15:38:26.896Z,81439.22
2023-03-10T15:41:29.408Z,81445.56
2023-03-10T15:44:32.239Z,81448.00
2023-03-10T15:47:34.782Z,81456.75
2023-03-10T15:50:40.634Z,81455.19
2023-03-10T15:53:43.107Z,81464.03
2023-03-10T15:56:45.798Z,81472.69
2023-03-10T15:59:48.531Z,81470.34
2023-03-10T16:02:51.647Z,81471.16
2023-03-10T16:05:54.310Z,81464.81
2023-03-10T16:08:56.734Z,81476.00
2023-03-10T16:11:59.541Z,81492.00
2023-03-10T16:15:02.058Z,81487.25
2023-03-10T16:18:04.736Z,81483.97
2023-03-10T16:21:07.258Z,81494.37
2023-03-10T16:24:10.082Z,81498.31
2023-03-10T16:27:13.585Z,81506.28
2023-03-10T16:30:17.800Z,81517.44
2023-03-10T16:33:20.490Z,81517.41
2023-03-10T16:36:26.404Z,81511.81
2023-03-10T16:39:31.440Z,81534.09
2023-03-10T16:42:36.368Z,81540.50
2023-03-10T16:45:38.869Z,81552.34
2023-03-10T16:48:44.219Z,81557.09
2023-03-10T16:51:47.912Z,81558.78
2023-03-10T16:54:50.660Z,81569.84
2023-03-10T16:57:53.931Z,81573.03
2023-03-10T17:00:56.682Z,81578.63
2023-03-10T17:03:59.215Z,81579.37
2023-03-10T17:07:01.859Z,81576.22
2023-03-10T17:10:05.075Z,81579.41
2023-03-10T17:13:07.764Z,81585.78
2023-03-10T17:16:15.363Z,81584.13
2023-03-10T17:19:22.618Z,81587.28
2023-03-10T17:22:25.972Z,81584.06
2023-03-10T17:25:28.893Z,81585.69
2023-03-10T17:28:31.318Z,81590.41
2023-03-10T17:31:34.253Z,81599.94
2023-03-10T17:34:36.644Z,81593.66
2023-03-10T17:37:39.396Z,81593.69
2023-03-10T17:40:42.919Z,81596.78
2023-03-10T17:43:45.819Z,81592.00
2023-03-10T17:46:48.285Z,81589.72
2023-03-10T17:49:51.227Z,81587.28
2023-03-10T17:52:53.952Z,81591.25
2023-03-10T17:55:57.157Z,81594.47
2023-03-10T17:58:59.640Z,81595.28
2023-03-10T18:02:03.708Z,81596.81
2023-03-10T18:05:07.626Z,81592.09
2023-03-10T18:08:11.632Z,81596.84
2023-03-10T18:11:15.090Z,81593.75
2023-03-10T18:14:17.409Z,81593.75
2023-03-10T18:17:20.053Z,81604.06
2023-03-10T18:20:23.995Z,81603.22
2023-03-10T18:23:26.800Z,81607.97
2023-03-10T18:26:33.794Z,81626.94
2023-03-10T18:29:36.460Z,81638.09
2023-03-10T18:32:39.244Z,81647.63
2023-03-10T18:35:44.586Z,81643.72
2023-03-10T18:38:48.063Z,81657.16
2023-03-10T18:41:54.167Z,81660.34
2023-03-10T18:44:56.606Z,81661.16
2023-03-10T18:47:59.337Z,81658.72
2023-03-10T18:51:02.199Z,81664.31
2023-03-10T18:54:06.863Z,81661.97
2023-03-10T18:57:09.557Z,81663.56
2023-03-10T19:00:14.966Z,81666.66
2023-03-10T19:03:18.665Z,81668.28
2023-03-10T19:06:21.381Z,81692.19
2023-03-10T19:09:24.505Z,81699.38
2023-03-10T19:12:28.596Z,81719.22
2023-03-10T19:15:31.064Z,81733.50
2023-03-10T19:18:33.768Z,81735.06
2023-03-10T19:21:38.016Z,81747.03
2023-03-10T19:24:40.642Z,81750.19
2023-03-10T19:27:43.243Z,81752.63
2023-03-10T19:30:45.966Z,81752.59
2023-03-10T19:33:48.399Z,81767.69
2023-03-10T19:36:51.057Z,81774.94
2023-03-10T19:39:53.408Z,81769.44
2023-03-10T19:42:56.224Z,81773.44
2023-03-10T19:46:04.067Z,81803.56
2023-03-10T19:49:08.151Z,81802.03
2023-03-10T19:52:10.845Z,81800.41
2023-03-10T19:55:23.416Z,81802.03
2023-03-10T19:58:26.593Z,81788.53
2023-03-10T20:01:29.359Z,81787.72
2023-03-10T20:04:34.640Z,81784.47
2023-03-10T20:07:36.988Z,81795.56
2023-03-10T20:10:39.715Z,81793.97
2023-03-10T20:13:43.357Z,81794.06
2023-03-10T20:16:46.014Z,81790.13
2023-03-10T20:19:48.417Z,81804.34
2023-03-10T20:22:51.290Z,81818.66
2023-03-10T20:26:04.862Z,81819.50
2023-03-10T20:29:07.599Z,81826.66
2023-03-10T20:32:10.124Z,81821.13
2023-03-10T20:35:13.922Z,81814.81
2023-03-10T20:38:16.496Z,81797.47
2023-03-10T20:41:19.891Z,81796.62
2023-03-10T20:44:22.279Z,81797.50
2023-03-10T20:47:25.072Z,81795.88
2023-03-10T20:50:27.694Z,81787.97
2023-03-10T20:53:37.368Z,81780.06
2023-03-10T20:56:39.744Z,81770.56
2023-03-10T20:59:42.473Z,81768.97
2023-03-10T21:02:46.106Z,81778.41
2023-03-10T21:05:48.774Z,81784.75
2023-03-10T21:08:51.604Z,81789.63
2023-03-10T21:11:54.802Z,81784.75
2023-03-10T21:14:57.746Z,81797.47
2023-03-10T21:18:06.980Z,81807.00
2023-03-10T21:21:10.330Z,81810.13
2023-03-10T21:24:16.703Z,81813.28
2023-03-10T21:27:21.015Z,81806.16
2023-03-10T21:30:23.635Z,81809.38
2023-03-10T21:33:27.771Z,81821.19
2023-03-10T21:36:31.135Z,81818.84
2023-03-10T21:39:34.078Z,81830.75
2023-03-10T21:42:37.103Z,81850.63
2023-03-10T21:45:39.843Z,81849.81
2023-03-10T21:48:44.184Z,81846.63
2023-03-10T21:51:46.847Z,81851.38
2023-03-10T21:54:49.226Z,81853.00
2023-03-10T21:57:51.965Z,81856.16
2023-03-10T22:00:56.242Z,81851.44
2023-03-10T22:03:59.184Z,81848.28
2023-03-10T22:07:02.809Z,81851.38
2023-03-10T22:10:07.085Z,81849.75
2023-03-10T22:13:09.830Z,81846.66
2023-03-10T22:16:16.302Z,81842.62
2023-03-10T22:19:18.962Z,81838.66
2023-03-10T22:22:22.666Z,81833.91
2023-03-10T22:25:25.384Z,81829.16
2023-03-10T22:28:28.042Z,81825.97
2023-03-10T22:31:30.508Z,81819.62
2023-03-10T22:34:33.204Z,81819.66
2023-03-10T22:37:37.127Z,81816.50
2023-03-10T22:40:39.877Z,81813.28
2023-03-10T22:43:42.395Z,81808.53
2023-03-10T22:46:46.854Z,81810.13
2023-03-10T22:49:49.277Z,81814.87
2023-03-10T22:52:52.318Z,81810.13
2023-03-10T22:55:54.652Z,81813.31
2023-03-10T22:58:57.559Z,81813.34
2023-03-10T23:02:00.036Z,81819.69
2023-03-10T23:05:03.121Z,81833.91
2023-03-10T23:08:07.026Z,81843.47
2023-03-10T23:11:11.623Z,81843.41
2023-03-10T23:14:14.012Z,81842.72
2023-03-10T23:17:16.690Z,81851.44
2023-03-10T23:20:19.471Z,81856.16
2023-03-10T23:23:22.193Z,81864.12
2023-03-10T23:26:24.542Z,81870.44
2023-03-10T23:29:27.375Z,81878.38
2023-03-10T23:32:29.773Z,81876.81
2023-03-10T23:35:33.864Z,81886.34
2023-03-10T23:38:36.294Z,81895.81
2023-03-10T23:41:39.384Z,81903.78
2023-03-10T23:44:41.872Z,81910.12
2023-03-10T23:47:45.877Z,81920.41
2023-03-10T23:50:48.713Z,81930.78
2023-03-10T23:53:51.503Z,81941.00
2023-03-10T23:56:53.877Z,81944.97
2023-03-10T23:59:56.565Z,81947.41
